Aviation Digital Data Service (ADDS)

Output produced by METARs form (0557 UTC 29 May 2017)
found at http://www.aviationweather.gov/adds/metars/
 
TAF TAPA 290511Z 2906/3006 10013KT 9999 SCT017 SCT036 
     PROB40 
     TEMPO 2906/2912 TSRA FEW013CB 
     TEMPO 2912/2918 SHRA 
     PROB30 
     TEMPO 3000/3006 SHRA